createdAt,value
2018-11-07T11:57:22.754Z,1013.62
2018-11-07T11:58:49.390Z,1013.64
2018-11-07T12:01:53.055Z,1013.60
2018-11-07T12:03:19.376Z,1013.58
2018-11-07T12:04:46.466Z,1013.57
2018-11-07T12:06:13.591Z,1013.56
2018-11-07T12:07:40.803Z,1013.52
2018-11-07T12:09:08.033Z,1013.52
2018-11-07T12:10:35.156Z,1013.56
2018-11-07T12:12:02.236Z,1013.56
2018-11-07T12:13:28.959Z,1013.55
2018-11-07T12:18:29.231Z,1013.62
2018-11-07T12:19:56.077Z,1013.64
2018-11-07T12:21:23.197Z,1013.64
2018-11-07T12:22:50.331Z,1013.63
2018-11-07T12:24:17.637Z,1013.64
2018-11-07T12:25:47.942Z,1013.67
2018-11-07T12:27:12.136Z,1013.66
2018-11-07T12:28:39.538Z,1013.66
2018-11-07T12:30:06.991Z,1013.65
2018-11-07T12:31:34.037Z,1013.65
2018-11-07T12:33:01.457Z,1013.66
2018-11-07T12:34:29.007Z,1013.65
2018-11-07T12:35:56.322Z,1013.61
2018-11-07T12:37:23.600Z,1013.59
2018-11-07T12:38:50.782Z,1013.63
2018-11-07T12:40:18.205Z,1013.66
2018-11-07T12:41:45.271Z,1013.70
2018-11-07T12:43:12.493Z,1013.73
2018-11-07T12:44:39.858Z,1013.75
2018-11-07T12:46:07.257Z,1013.72
2018-11-07T12:47:34.684Z,1013.65
2018-11-07T12:49:01.977Z,1013.62
2018-11-07T12:50:29.317Z,1013.61
2018-11-07T12:51:56.300Z,1013.61
2018-11-07T12:53:23.184Z,1013.61
2018-11-07T12:54:49.958Z,1013.59
2018-11-07T12:56:17.071Z,1013.56
2018-11-07T12:57:43.749Z,1013.57
2018-11-07T12:59:10.890Z,1013.58
2018-11-07T13:00:38.330Z,1013.57
2018-11-07T13:02:05.597Z,1013.60
2018-11-07T13:03:32.946Z,1013.62
2018-11-07T13:05:00.303Z,1013.62
2018-11-07T13:06:27.275Z,1013.64
2018-11-07T13:07:54.675Z,1013.64
2018-11-07T13:09:22.107Z,1013.66
2018-11-07T13:10:49.515Z,1013.66
2018-11-07T13:12:16.839Z,1013.65
2018-11-07T13:13:44.332Z,1013.68
2018-11-07T13:15:11.012Z,1013.69
2018-11-07T13:16:38.304Z,1013.70
2018-11-07T13:18:05.518Z,1013.72
2018-11-07T13:19:32.252Z,1013.73
2018-11-07T13:20:59.008Z,1013.77
2018-11-07T13:22:25.919Z,1013.81
2018-11-07T13:23:53.008Z,1013.77
2018-11-07T13:25:20.276Z,1013.81
2018-11-07T13:26:47.156Z,1013.83
2018-11-07T13:28:14.033Z,1013.83
2018-11-07T13:29:41.036Z,1013.85
2018-11-07T13:31:08.085Z,1013.84
2018-11-07T13:32:35.064Z,1013.85
2018-11-07T13:34:01.709Z,1013.86
2018-11-07T13:35:31.443Z,1013.85
2018-11-07T13:36:55.576Z,1013.86
2018-11-07T13:38:22.567Z,1013.89
2018-11-07T13:39:49.283Z,1013.91
2018-11-07T13:41:15.949Z,1013.93
2018-11-07T13:42:43.265Z,1013.93
2018-11-07T13:44:10.161Z,1013.96
2018-11-07T13:45:37.157Z,1013.96
2018-11-07T13:47:04.083Z,1013.98
2018-11-07T13:48:31.364Z,1014.02
2018-11-07T13:49:58.196Z,1014.05
2018-11-07T13:51:24.869Z,1014.06
2018-11-07T13:52:51.766Z,1014.07
2018-11-07T13:54:18.821Z,1014.05
2018-11-07T13:55:45.441Z,1014.06
2018-11-07T13:57:12.806Z,1014.06
2018-11-07T13:58:38.939Z,1014.08
2018-11-07T14:00:05.612Z,1014.08
2018-11-07T14:01:32.303Z,1014.07
2018-11-07T14:02:59.355Z,1014.07
2018-11-07T14:04:26.510Z,1014.06
2018-11-07T14:05:53.540Z,1014.04
2018-11-07T14:07:20.385Z,1014.06
2018-11-07T14:08:47.479Z,1014.07
2018-11-07T14:10:14.644Z,1014.10
2018-11-07T14:11:41.764Z,1014.11
2018-11-07T14:13:08.799Z,1014.12
2018-11-07T14:14:35.580Z,1014.12
2018-11-07T14:16:02.776Z,1014.15
2018-11-07T14:17:29.710Z,1014.20
2018-11-07T14:18:56.010Z,1014.25
2018-11-07T14:20:22.859Z,1014.27
2018-11-07T14:21:49.661Z,1014.34
